Time;durP1;ratioP1;P1;durP2;ratioP2;P2;SDS_P1;SDS_P2;PMS_P1;PMS_P2;Temp;Humidity;BMP_temperature;BMP_pressure;BME280_temperature;BME280_humidity;BME280_pressure;Samples;Min_cycle;Max_cycle;Signal;HPM_P1;HPM_P2
2022/01/22 00:00:05;;;;;;;7.73;1.60;;;6.50;99.90;;;;;;5040921;28;20184;-46
2022/01/22 00:02:40;;;;;;;4.80;1.77;;;6.50;99.90;;;;;;5041860;28;20280;-48
2022/01/22 00:05:09;;;;;;;2.40;1.47;;;6.50;99.90;;;;;;5042019;28;20502;-51
2022/01/22 00:07:36;;;;;;;3.67;1.20;;;6.50;99.90;;;;;;5036811;28;20210;-47
2022/01/22 00:10:07;;;;;;;6.67;1.80;;;6.50;99.90;;;;;;5043870;28;20215;-47
2022/01/22 00:13:06;;;;;;;4.90;1.43;;;6.50;99.90;;;;;;5042078;28;20300;-51
2022/01/22 00:15:33;;;;;;;4.80;1.60;;;6.40;99.90;;;;;;5049120;28;20302;-48
2022/01/22 00:18:01;;;;;;;4.10;2.20;;;6.50;99.90;;;;;;5046436;28;20206;-49
2022/01/22 00:20:29;;;;;;;8.77;1.73;;;6.40;99.90;;;;;;5041010;28;20679;-48
2022/01/22 00:22:56;;;;;;;4.10;1.70;;;6.40;99.90;;;;;;5042921;28;20230;-46
2022/01/22 00:25:23;;;;;;;4.63;1.40;;;6.40;99.90;;;;;;5034827;28;20227;-47
2022/01/22 00:27:51;;;;;;;3.87;1.47;;;6.40;99.90;;;;;;5050018;28;20400;-46
2022/01/22 00:30:20;;;;;;;3.63;1.63;;;6.40;99.90;;;;;;5047902;28;20573;-49
2022/01/22 00:32:47;;;;;;;6.20;2.00;;;6.40;99.90;;;;;;5040830;28;20305;-48
2022/01/22 00:35:18;;;;;;;6.50;1.93;;;6.40;99.90;;;;;;5040381;28;20579;-49
2022/01/22 00:37:47;;;;;;;5.40;2.37;;;6.40;99.90;;;;;;5047535;28;20225;-51
2022/01/22 00:40:15;;;;;;;5.77;2.07;;;6.40;99.90;;;;;;5032554;28;20221;-51
2022/01/22 00:42:42;;;;;;;4.80;1.63;;;6.40;99.90;;;;;;5050953;28;20911;-48
2022/01/22 00:45:10;;;;;;;5.70;1.70;;;6.40;99.90;;;;;;5042462;28;20586;-49
2022/01/22 00:47:37;;;;;;;5.07;1.57;;;6.40;99.90;;;;;;5052758;28;20225;-46
2022/01/22 00:50:05;;;;;;;8.57;2.30;;;6.40;99.90;;;;;;5047557;28;20202;-50
2022/01/22 00:52:33;;;;;;;4.70;1.90;;;6.40;99.90;;;;;;5041874;28;20203;-49
2022/01/22 00:55:00;;;;;;;5.77;1.70;;;6.40;99.90;;;;;;5035383;28;20734;-46
2022/01/22 00:57:27;;;;;;;7.23;1.63;;;6.40;99.90;;;;;;5051765;28;20199;-50
2022/01/22 00:59:55;;;;;;;5.27;2.10;;;6.40;99.90;;;;;;5044888;28;20204;-46
2022/01/22 01:02:22;;;;;;;5.40;2.07;;;6.40;99.90;;;;;;5044742;28;20241;-49
2022/01/22 01:04:49;;;;;;;4.20;2.10;;;6.40;99.90;;;;;;5044333;28;20782;-48
2022/01/22 01:07:16;;;;;;;2.80;1.63;;;6.40;99.90;;;;;;5044422;28;20203;-50
2022/01/22 01:09:45;;;;;;;5.60;1.80;;;6.40;99.90;;;;;;5033363;28;20842;-52
2022/01/22 01:12:13;;;;;;;4.70;2.20;;;6.40;99.90;;;;;;5047562;28;20246;-52
2022/01/22 01:14:46;;;;;;;5.07;2.43;;;6.40;99.90;;;;;;5047500;28;20223;-49
2022/01/22 01:17:34;;;;;;;2.93;1.73;;;6.40;99.90;;;;;;5044694;28;20214;-48
2022/01/22 01:34:11;;;;;;;4.93;1.93;;;6.30;99.90;;;;;;5063794;28;20202;-50
2022/01/22 01:36:38;;;;;;;5.30;2.47;;;6.30;99.90;;;;;;5060903;28;20290;-48
2022/01/22 01:39:09;;;;;;;7.23;2.30;;;6.30;99.90;;;;;;5063782;28;20260;-51
2022/01/22 01:41:46;;;;;;;7.90;2.47;;;6.30;99.90;;;;;;5039135;28;20207;-50
2022/01/22 01:44:15;;;;;;;8.53;2.40;;;6.30;99.90;;;;;;5050206;28;20201;-49
2022/01/22 01:46:56;;;;;;;4.63;2.47;;;6.30;99.90;;;;;;5056847;28;20202;-48
2022/01/22 01:49:25;;;;;;;7.73;3.00;;;6.30;99.90;;;;;;5061443;28;20577;-51
2022/01/22 01:51:54;;;;;;;9.17;2.87;;;6.30;99.90;;;;;;5062226;28;20218;-52
2022/01/22 01:54:31;;;;;;;7.23;2.63;;;6.30;99.90;;;;;;5061854;28;20206;-51
2022/01/22 01:59:48;;;;;;;7.60;3.40;;;6.30;99.90;;;;;;5047346;28;20822;-51
2022/01/22 02:02:24;;;;;;;9.80;3.13;;;6.30;99.90;;;;;;5056031;28;20289;-53
2022/01/22 02:04:51;;;;;;;9.93;3.43;;;6.30;99.90;;;;;;5061760;28;20230;-48
2022/01/22 02:07:20;;;;;;;9.90;3.40;;;6.30;99.90;;;;;;5061863;28;20293;-49
2022/01/22 02:09:58;;;;;;;6.73;2.67;;;6.30;99.90;;;;;;5061473;28;20510;-47
2022/01/22 02:12:47;;;;;;;5.23;3.03;;;6.20;99.90;;;;;;5044731;28;20703;-46
2022/01/22 02:23:50;;;;;;;8.50;2.67;;;6.20;99.90;;;;;;5060394;28;20285;-47
2022/01/22 02:26:18;;;;;;;14.00;2.67;;;6.20;99.90;;;;;;5063355;28;20222;-49
2022/01/22 02:28:50;;;;;;;6.47;2.90;;;6.20;99.90;;;;;;5039846;28;20203;-51
2022/01/22 02:31:26;;;;;;;4.87;2.77;;;6.20;99.90;;;;;;5050377;28;20722;-49
2022/01/22 02:34:06;;;;;;;8.13;2.50;;;6.20;99.90;;;;;;5043180;28;20631;-47
2022/01/22 02:36:36;;;;;;;5.27;2.50;;;6.20;99.90;;;;;;5039374;28;20276;-50
2022/01/22 02:39:10;;;;;;;7.00;2.83;;;6.20;99.90;;;;;;5043677;28;20211;-48
2022/01/22 02:41:41;;;;;;;9.63;2.70;;;6.20;99.90;;;;;;5040520;28;20187;-51
2022/01/22 02:44:10;;;;;;;10.07;2.77;;;6.20;99.90;;;;;;5041582;28;20258;-51
2022/01/22 02:46:38;;;;;;;7.53;2.93;;;6.20;99.90;;;;;;5041581;28;20262;-47
2022/01/22 02:49:05;;;;;;;15.43;3.37;;;6.20;99.90;;;;;;5043224;28;20234;-50
2022/01/22 02:51:33;;;;;;;9.63;3.03;;;6.20;99.90;;;;;;5039296;28;20246;-48
2022/01/22 02:54:01;;;;;;;8.03;2.60;;;6.20;99.90;;;;;;5043045;28;20750;-47
2022/01/22 02:56:29;;;;;;;7.73;3.03;;;6.20;99.90;;;;;;5039817;28;20268;-48
2022/01/22 02:58:59;;;;;;;9.87;3.67;;;6.20;99.90;;;;;;5031133;28;20211;-46
2022/01/22 03:01:25;;;;;;;9.43;3.27;;;6.20;99.90;;;;;;5044930;28;20281;-46
2022/01/22 03:03:55;;;;;;;5.20;2.90;;;6.20;99.90;;;;;;5046390;28;20672;-48
2022/01/22 03:06:21;;;;;;;9.90;3.37;;;6.30;99.90;;;;;;5046059;28;20845;-49
2022/01/22 03:08:49;;;;;;;7.80;3.60;;;6.20;99.90;;;;;;5045566;28;20282;-48
2022/01/22 03:11:23;;;;;;;10.70;4.00;;;6.20;99.90;;;;;;5042051;28;20272;-48
2022/01/22 03:16:52;;;;;;;6.13;3.60;;;6.20;99.90;;;;;;5051265;28;20231;-50
2022/01/22 03:19:33;;;;;;;9.67;3.60;;;6.20;99.90;;;;;;5038756;28;20846;-48
2022/01/22 03:22:13;;;;;;;10.87;3.63;;;6.20;99.90;;;;;;5041066;28;20617;-45
2022/01/22 03:27:24;;;;;;;12.53;3.50;;;6.20;99.90;;;;;;5017281;28;20203;-47
2022/01/22 03:29:51;;;;;;;10.70;3.53;;;6.30;99.90;;;;;;5034455;28;20564;-46
2022/01/22 03:32:19;;;;;;;10.53;3.63;;;6.20;99.90;;;;;;5046216;28;20210;-49
2022/01/22 03:34:56;;;;;;;6.70;3.33;;;6.20;99.90;;;;;;5048639;28;20307;-47
2022/01/22 03:37:25;;;;;;;7.80;3.50;;;6.20;99.90;;;;;;5039227;28;20207;-47
2022/01/22 03:39:54;;;;;;;6.37;3.43;;;6.30;99.90;;;;;;5042446;28;20210;-48
2022/01/22 03:42:21;;;;;;;8.97;3.50;;;6.30;99.90;;;;;;5051052;28;20188;-49
2022/01/22 03:44:48;;;;;;;8.87;3.83;;;6.30;99.90;;;;;;5045424;28;20218;-49
2022/01/22 03:47:15;;;;;;;9.83;3.33;;;6.30;99.90;;;;;;5036380;28;20202;-51
2022/01/22 03:49:42;;;;;;;6.23;3.57;;;6.30;99.90;;;;;;5044736;28;20196;-48
2022/01/22 03:52:12;;;;;;;7.47;3.43;;;6.30;99.90;;;;;;5038191;28;20285;-49
2022/01/22 03:54:40;;;;;;;6.07;3.30;;;6.30;99.90;;;;;;5042308;28;20223;-49
2022/01/22 03:57:09;;;;;;;8.33;3.57;;;6.20;99.90;;;;;;5039217;28;20297;-50
2022/01/22 03:59:43;;;;;;;9.07;3.10;;;6.30;99.90;;;;;;5042462;28;20628;-46
2022/01/22 04:03:03;;;;;;;7.27;2.90;;;6.30;99.90;;;;;;5028515;28;20207;-49
2022/01/22 04:05:31;;;;;;;12.33;3.40;;;6.30;99.90;;;;;;5049518;28;20207;-48
2022/01/22 04:08:10;;;;;;;7.27;2.97;;;6.20;99.90;;;;;;5040724;28;20261;-51
2022/01/22 04:10:38;;;;;;;12.30;3.47;;;6.20;99.90;;;;;;5041607;28;20217;-53
2022/01/22 04:13:09;;;;;;;9.07;3.40;;;6.30;99.90;;;;;;5043295;28;20309;-51
2022/01/22 04:15:39;;;;;;;5.37;3.20;;;6.20;99.90;;;;;;5044057;28;20320;-50
2022/01/22 04:26:30;;;;;;;7.43;3.27;;;6.20;99.90;;;;;;5043326;28;20202;-51
2022/01/22 04:28:58;;;;;;;12.67;3.20;;;6.20;99.90;;;;;;5059907;28;20212;-53
2022/01/22 04:31:25;;;;;;;7.03;3.07;;;6.20;99.90;;;;;;5047655;28;20223;-49
2022/01/22 04:33:52;;;;;;;9.00;3.00;;;6.20;99.90;;;;;;5053239;28;20199;-46
2022/01/22 04:36:20;;;;;;;10.47;2.80;;;6.20;99.90;;;;;;5043140;28;20249;-50
2022/01/22 04:38:47;;;;;;;7.93;3.47;;;6.20;99.90;;;;;;5047364;28;20203;-50
2022/01/22 04:41:15;;;;;;;7.27;3.10;;;6.20;99.90;;;;;;5049124;28;20195;-50
2022/01/22 04:43:44;;;;;;;7.70;2.73;;;6.20;99.90;;;;;;5049018;28;20214;-49
2022/01/22 04:46:20;;;;;;;7.93;3.60;;;6.20;99.90;;;;;;5032069;28;20682;-46
2022/01/22 04:49:04;;;;;;;9.03;3.10;;;6.20;99.90;;;;;;5048781;28;20210;-48
2022/01/22 04:57:01;;;;;;;8.93;3.00;;;6.20;99.90;;;;;;5043598;28;20625;-50
2022/01/22 04:59:28;;;;;;;6.83;2.70;;;6.20;99.90;;;;;;5043508;28;20192;-48
2022/01/22 05:01:57;;;;;;;11.23;3.50;;;6.20;99.90;;;;;;5050861;28;20225;-51
2022/01/22 05:04:42;;;;;;;8.67;3.57;;;6.20;99.90;;;;;;5055218;28;20229;-46
2022/01/22 05:07:18;;;;;;;9.73;3.93;;;6.20;99.90;;;;;;5061947;28;20201;-49
2022/01/22 05:10:15;;;;;;;11.53;3.60;;;6.20;99.90;;;;;;5042105;28;20210;-47
2022/01/22 05:12:43;;;;;;;8.47;4.00;;;6.20;99.90;;;;;;5059298;28;20223;-52
2022/01/22 05:15:11;;;;;;;10.20;3.60;;;6.20;99.90;;;;;;5049134;28;20227;-48
2022/01/22 05:17:42;;;;;;;11.23;4.00;;;6.20;99.90;;;;;;5038785;28;20296;-51
2022/01/22 05:20:22;;;;;;;6.90;3.40;;;6.20;99.90;;;;;;5050726;28;20214;-49
2022/01/22 05:22:56;;;;;;;10.63;3.80;;;6.20;99.90;;;;;;5047340;28;20962;-49
2022/01/22 05:25:29;;;;;;;9.03;3.60;;;6.20;99.90;;;;;;5043249;28;20222;-48
2022/01/22 05:28:07;;;;;;;12.17;4.60;;;6.30;99.90;;;;;;5051917;28;20196;-48
2022/01/22 05:31:05;;;;;;;12.70;4.17;;;6.20;99.90;;;;;;5046843;28;20200;-47
2022/01/22 05:36:59;;;;;;;12.07;4.33;;;6.30;99.90;;;;;;5047204;28;20936;-49
2022/01/22 05:39:29;;;;;;;11.97;4.63;;;6.20;99.90;;;;;;5055889;28;20207;-49
2022/01/22 05:41:57;;;;;;;10.43;4.63;;;6.20;99.90;;;;;;5045504;28;20204;-49
2022/01/22 05:44:24;;;;;;;13.47;4.37;;;6.20;99.90;;;;;;5049199;28;20207;-50
2022/01/22 05:46:53;;;;;;;16.27;4.80;;;6.20;99.90;;;;;;5042914;28;20199;-46
2022/01/22 05:49:23;;;;;;;11.93;4.83;;;6.20;99.90;;;;;;5045705;28;20570;-48
2022/01/22 05:51:52;;;;;;;13.63;4.97;;;6.20;99.90;;;;;;5041810;28;20233;-51
2022/01/22 05:54:50;;;;;;;9.33;4.50;;;6.30;99.90;;;;;;5048019;28;20203;-50
2022/01/22 06:00:07;;;;;;;15.53;4.70;;;6.30;99.90;;;;;;5040781;28;20674;-48
2022/01/22 06:02:46;;;;;;;12.37;5.50;;;6.20;99.90;;;;;;5045086;28;20196;-48
2022/01/22 06:05:15;;;;;;;10.63;4.67;;;6.20;99.90;;;;;;5032895;28;20983;-50
2022/01/22 06:07:42;;;;;;;11.47;4.23;;;6.20;99.90;;;;;;5038827;28;20203;-46
2022/01/22 06:10:17;;;;;;;13.57;5.30;;;6.30;99.90;;;;;;5045689;28;20195;-49
2022/01/22 06:12:57;;;;;;;11.93;5.20;;;6.30;99.90;;;;;;5053836;28;20221;-51
2022/01/22 06:15:27;;;;;;;12.73;4.70;;;6.30;99.90;;;;;;5050441;28;20211;-50
2022/01/22 06:18:19;;;;;;;11.00;5.23;;;6.20;99.90;;;;;;5045772;28;20195;-49
2022/01/22 06:20:50;;;;;;;11.30;4.60;;;6.20;99.90;;;;;;5040942;28;20207;-49
2022/01/22 06:23:16;;;;;;;9.97;4.90;;;6.20;99.90;;;;;;5040790;28;20213;-48
2022/01/22 06:25:43;;;;;;;10.23;4.53;;;6.20;99.90;;;;;;5053287;28;20231;-50
2022/01/22 06:28:10;;;;;;;9.53;4.53;;;6.20;99.90;;;;;;5035070;28;20982;-49
2022/01/22 06:30:37;;;;;;;9.90;4.63;;;6.20;99.90;;;;;;5044822;28;20207;-45
2022/01/22 06:33:04;;;;;;;9.30;4.70;;;6.20;99.90;;;;;;5052136;28;20218;-45
2022/01/22 06:35:34;;;;;;;11.30;4.47;;;6.20;99.90;;;;;;5037025;28;20260;-45
2022/01/22 06:38:06;;;;;;;9.70;4.97;;;6.20;99.90;;;;;;5046964;28;20199;-52
2022/01/22 06:44:31;;;;;;;10.67;5.67;;;6.20;99.90;;;;;;5051746;28;20199;-45
2022/01/22 06:47:19;;;;;;;12.53;4.87;;;6.20;99.90;;;;;;5048301;28;20199;-52
2022/01/22 06:50:09;;;;;;;13.27;5.17;;;6.20;99.90;;;;;;5038723;28;20216;-50
2022/01/22 06:52:58;;;;;;;9.90;4.50;;;6.20;99.90;;;;;;5043743;28;20223;-49
2022/01/22 06:55:54;;;;;;;12.80;4.73;;;6.20;99.90;;;;;;5038214;28;20222;-47
2022/01/22 06:58:21;;;;;;;10.73;5.10;;;6.20;99.90;;;;;;5050918;28;20199;-46
2022/01/22 07:00:54;;;;;;;9.03;4.70;;;6.20;99.90;;;;;;5049311;28;20298;-47
2022/01/22 07:03:30;;;;;;;9.60;5.00;;;6.20;99.90;;;;;;5046218;28;20977;-52
2022/01/22 07:06:17;;;;;;;9.80;5.27;;;6.20;99.90;;;;;;5047992;28;20594;-51
2022/01/22 07:08:44;;;;;;;9.20;5.20;;;6.20;99.90;;;;;;5034794;28;20688;-47
2022/01/22 07:11:17;;;;;;;8.97;5.40;;;6.20;99.90;;;;;;5044490;28;20203;-51
2022/01/22 07:13:46;;;;;;;13.93;5.73;;;6.20;99.90;;;;;;5046263;28;20215;-50
2022/01/22 07:16:13;;;;;;;12.37;5.37;;;6.20;99.90;;;;;;5050872;28;20228;-51
2022/01/22 07:18:40;;;;;;;10.37;5.50;;;6.20;99.90;;;;;;5043189;28;20194;-50
2022/01/22 07:21:15;;;;;;;12.20;6.07;;;6.20;99.90;;;;;;5042788;28;20233;-46
2022/01/22 07:26:41;;;;;;;12.73;6.70;;;6.20;99.90;;;;;;4982178;28;20227;-47
2022/01/22 07:29:14;;;;;;;12.93;7.63;;;6.20;99.90;;;;;;5027063;28;20210;-47
2022/01/22 07:31:43;;;;;;;9.97;6.40;;;6.20;99.90;;;;;;5069499;28;20202;-46
2022/01/22 07:34:12;;;;;;;10.67;6.37;;;6.10;99.90;;;;;;5047530;28;20206;-50
2022/01/22 07:36:39;;;;;;;12.30;6.57;;;6.10;99.90;;;;;;5049651;28;20281;-49
2022/01/22 07:39:06;;;;;;;13.73;6.50;;;6.10;99.90;;;;;;5039294;28;20213;-47
2022/01/22 07:41:37;;;;;;;10.47;5.90;;;6.10;99.90;;;;;;5054548;28;20209;-45
2022/01/22 07:44:25;;;;;;;10.57;5.47;;;6.10;99.90;;;;;;5044588;28;20206;-45
2022/01/22 07:46:55;;;;;;;11.77;5.00;;;6.10;99.90;;;;;;5048291;28;20652;-45
2022/01/22 07:49:24;;;;;;;6.33;4.63;;;6.10;99.90;;;;;;5042023;28;20199;-45
2022/01/22 07:51:52;;;;;;;8.17;4.30;;;6.10;99.90;;;;;;5048335;28;20278;-46
2022/01/22 07:54:20;;;;;;;6.40;3.87;;;6.00;99.90;;;;;;5036319;28;20302;-47
2022/01/22 07:56:48;;;;;;;5.83;3.40;;;6.10;99.90;;;;;;5042126;28;20680;-45
2022/01/22 07:59:15;;;;;;;6.67;3.40;;;6.10;99.90;;;;;;5042322;28;20206;-52
2022/01/22 08:01:48;;;;;;;7.40;2.97;;;6.00;99.90;;;;;;5048356;28;20206;-47
2022/01/22 08:04:24;;;;;;;5.63;3.53;;;6.10;99.90;;;;;;5035019;28;20677;-46
2022/01/22 08:07:11;;;;;;;4.53;2.97;;;6.00;99.90;;;;;;5044932;28;20280;-46
2022/01/22 08:09:58;;;;;;;7.87;3.00;;;6.10;99.90;;;;;;5039416;28;20206;-45
2022/01/22 08:12:42;;;;;;;9.63;3.40;;;6.00;99.90;;;;;;5048459;28;20203;-45
2022/01/22 08:15:13;;;;;;;6.53;3.10;;;6.10;99.90;;;;;;5037628;28;20243;-48
2022/01/22 08:17:42;;;;;;;5.43;3.03;;;6.10;99.90;;;;;;5053744;28;20761;-49
2022/01/22 08:20:12;;;;;;;4.03;3.23;;;6.00;99.90;;;;;;5045203;28;20210;-47
2022/01/22 08:22:52;;;;;;;7.03;3.23;;;6.00;99.90;;;;;;5045734;28;20256;-47
2022/01/22 08:25:38;;;;;;;5.70;3.10;;;6.00;99.90;;;;;;5035754;28;20567;-45
2022/01/22 08:31:24;;;;;;;5.43;3.67;;;6.10;99.90;;;;;;5024252;28;20222;-49
2022/01/22 08:36:39;;;;;;;7.57;3.77;;;6.10;99.90;;;;;;5045370;28;20447;-47
2022/01/22 08:39:07;;;;;;;8.73;4.13;;;6.10;99.90;;;;;;5044526;28;20207;-48
2022/01/22 08:41:36;;;;;;;15.20;4.50;;;6.10;99.90;;;;;;5042506;28;20714;-45
2022/01/22 08:44:05;;;;;;;7.50;4.43;;;6.10;99.90;;;;;;5054491;28;20277;-47
2022/01/22 08:46:32;;;;;;;9.70;3.90;;;6.10;99.90;;;;;;5053094;28;20198;-45
2022/01/22 08:49:00;;;;;;;8.47;4.07;;;6.10;99.90;;;;;;5063979;28;20210;-48
2022/01/22 08:51:29;;;;;;;8.90;3.93;;;6.10;99.90;;;;;;5046437;28;21102;-47
2022/01/22 08:53:58;;;;;;;11.40;3.80;;;6.10;99.90;;;;;;5053454;28;20239;-47
2022/01/22 08:56:26;;;;;;;7.50;3.30;;;6.20;99.90;;;;;;5028802;28;20230;-46
2022/01/22 08:58:53;;;;;;;6.43;3.70;;;6.20;99.90;;;;;;5044799;28;20199;-45
2022/01/22 09:01:32;;;;;;;9.20;3.43;;;6.20;99.90;;;;;;5046513;28;20232;-47
2022/01/22 09:04:06;;;;;;;10.63;3.83;;;6.20;99.90;;;;;;5050752;28;20219;-46
2022/01/22 09:06:43;;;;;;;8.67;3.20;;;6.20;99.90;;;;;;5053237;28;20324;-45
2022/01/22 09:09:19;;;;;;;8.00;2.90;;;6.20;99.90;;;;;;5040672;28;20316;-45
2022/01/22 09:12:19;;;;;;;6.63;3.00;;;6.20;99.90;;;;;;5035039;28;20206;-46
2022/01/22 09:14:53;;;;;;;6.90;3.07;;;6.30;99.90;;;;;;5044577;28;20713;-44
2022/01/22 09:17:20;;;;;;;7.43;2.70;;;6.30;99.90;;;;;;5051314;28;20183;-46
2022/01/22 09:19:56;;;;;;;4.07;2.30;;;6.30;99.90;;;;;;5053299;28;20679;-47
2022/01/22 09:22:23;;;;;;;6.37;2.57;;;6.30;99.90;;;;;;5051252;28;20230;-45
2022/01/22 09:24:52;;;;;;;5.07;2.47;;;6.40;99.90;;;;;;5041971;28;20234;-47
2022/01/22 09:27:19;;;;;;;10.73;2.50;;;6.40;99.90;;;;;;5032219;28;20211;-45
2022/01/22 09:29:48;;;;;;;10.43;3.20;;;6.40;99.90;;;;;;5052797;28;20318;-44
2022/01/22 09:32:15;;;;;;;6.20;2.83;;;6.40;99.90;;;;;;5040097;28;20207;-43
2022/01/22 09:34:54;;;;;;;8.37;3.40;;;6.50;99.90;;;;;;5053396;28;20238;-49
2022/01/22 09:37:42;;;;;;;11.57;3.37;;;6.50;99.90;;;;;;5055002;28;20213;-46
2022/01/22 09:40:27;;;;;;;8.07;3.10;;;6.40;99.90;;;;;;5049724;28;20200;-44
2022/01/22 09:43:12;;;;;;;8.77;3.20;;;6.50;99.90;;;;;;5041390;28;20286;-45
2022/01/22 09:45:55;;;;;;;11.90;3.93;;;6.50;99.90;;;;;;5042528;28;20513;-48
2022/01/22 09:48:48;;;;;;;11.37;4.23;;;6.50;99.90;;;;;;5045291;28;20434;-43
2022/01/22 09:51:37;;;;;;;3.77;2.70;;;6.50;99.90;;;;;;5023880;28;20215;-46
2022/01/22 09:54:27;;;;;;;3.60;3.10;;;6.50;99.90;;;;;;5044001;28;20285;-44
2022/01/22 09:57:03;;;;;;;10.80;3.33;;;6.50;99.90;;;;;;5059181;28;20850;-43
2022/01/22 09:59:44;;;;;;;9.77;3.33;;;6.50;99.90;;;;;;5047839;28;20212;-47
2022/01/22 10:02:48;;;;;;;10.27;3.53;;;6.50;99.90;;;;;;5061734;28;20229;-43
2022/01/22 10:05:35;;;;;;;7.73;3.60;;;6.50;99.90;;;;;;5055489;28;20301;-46
2022/01/22 10:08:27;;;;;;;6.90;2.97;;;6.50;99.90;;;;;;5057688;28;20206;-45
2022/01/22 10:11:18;;;;;;;3.77;3.37;;;6.60;99.90;;;;;;5065216;28;20206;-45
2022/01/22 10:14:20;;;;;;;8.97;3.37;;;6.60;99.90;;;;;;5052420;28;20234;-47
2022/01/22 10:16:49;;;;;;;6.40;3.23;;;6.60;99.90;;;;;;5049312;28;20191;-44
2022/01/22 10:19:18;;;;;;;9.27;3.50;;;6.70;99.90;;;;;;5044933;28;20286;-44
2022/01/22 10:21:47;;;;;;;10.60;3.50;;;6.70;99.90;;;;;;5053175;28;20225;-44
2022/01/22 10:24:29;;;;;;;7.37;3.20;;;6.70;99.90;;;;;;5064867;28;20183;-48
2022/01/22 10:27:22;;;;;;;9.40;3.37;;;6.70;99.90;;;;;;5060976;28;20797;-48
2022/01/22 10:29:53;;;;;;;6.73;3.20;;;6.70;99.90;;;;;;5047474;28;20922;-49
2022/01/22 10:32:25;;;;;;;10.20;3.43;;;6.80;99.90;;;;;;5063078;28;20583;-46
2022/01/22 10:35:15;;;;;;;6.57;3.17;;;6.80;99.90;;;;;;5057056;28;20993;-44
2022/01/22 10:38:03;;;;;;;4.47;2.63;;;6.80;99.90;;;;;;5050650;28;20222;-44
2022/01/22 10:40:34;;;;;;;7.60;2.70;;;6.80;99.90;;;;;;5049673;28;20202;-45
2022/01/22 10:43:15;;;;;;;5.40;2.60;;;6.90;99.90;;;;;;5044069;28;20200;-46
2022/01/22 10:45:56;;;;;;;4.13;2.80;;;6.90;99.90;;;;;;5032214;28;20508;-46
2022/01/22 10:48:24;;;;;;;3.67;2.80;;;6.90;99.90;;;;;;5048322;28;20205;-44
2022/01/22 10:51:01;;;;;;;3.03;2.60;;;6.80;99.90;;;;;;5034780;28;20604;-47
2022/01/22 10:53:43;;;;;;;8.10;3.10;;;6.90;99.90;;;;;;5048826;28;20211;-45
2022/01/22 10:56:14;;;;;;;3.53;3.10;;;6.80;99.90;;;;;;5042849;28;20231;-46
2022/01/22 10:59:02;;;;;;;7.70;3.13;;;6.90;99.90;;;;;;5055792;28;20258;-45
2022/01/22 11:01:31;;;;;;;5.07;3.23;;;6.90;99.90;;;;;;5039054;28;20201;-45
2022/01/22 11:04:09;;;;;;;4.90;3.13;;;6.90;99.90;;;;;;5049045;28;20187;-50
2022/01/22 11:06:36;;;;;;;5.17;3.23;;;7.00;99.90;;;;;;5047642;28;20226;-44
2022/01/22 11:09:05;;;;;;;7.00;3.73;;;7.00;99.90;;;;;;5041040;28;20199;-49
2022/01/22 11:11:37;;;;;;;5.07;3.80;;;7.00;99.90;;;;;;5038283;28;20317;-44
2022/01/22 11:14:05;;;;;;;6.60;4.20;;;7.00;99.90;;;;;;5043316;28;20222;-46
2022/01/22 11:16:35;;;;;;;5.63;4.50;;;7.00;99.90;;;;;;5038163;28;20930;-45
2022/01/22 11:19:03;;;;;;;7.50;4.33;;;7.00;99.90;;;;;;5051136;28;20195;-47
2022/01/22 11:21:31;;;;;;;7.27;3.80;;;7.10;99.90;;;;;;5045744;28;20200;-48
2022/01/22 11:23:58;;;;;;;6.70;4.20;;;7.10;99.90;;;;;;5050921;28;20202;-46
2022/01/22 11:26:25;;;;;;;5.53;4.03;;;7.10;99.90;;;;;;5041026;28;20491;-45
2022/01/22 11:28:54;;;;;;;5.63;3.50;;;7.10;99.90;;;;;;5048568;28;20204;-46
2022/01/22 11:31:24;;;;;;;6.63;3.33;;;7.10;99.90;;;;;;5048292;28;20829;-47
2022/01/22 11:33:53;;;;;;;4.17;3.00;;;7.10;99.90;;;;;;5039932;28;20218;-45
2022/01/22 11:36:26;;;;;;;5.20;3.47;;;7.00;99.90;;;;;;5037618;28;20229;-46
2022/01/22 11:38:55;;;;;;;3.80;2.90;;;7.10;99.90;;;;;;5050746;28;20195;-46
2022/01/22 11:41:23;;;;;;;3.00;2.70;;;7.10;99.90;;;;;;5048093;28;20415;-47
2022/01/22 11:44:03;;;;;;;5.13;3.40;;;7.10;99.90;;;;;;5038971;28;20199;-43
2022/01/22 11:46:34;;;;;;;4.10;2.67;;;7.00;99.90;;;;;;5047144;28;20501;-43
2022/01/22 11:49:13;;;;;;;4.13;3.13;;;7.00;99.90;;;;;;5034764;28;20214;-48
2022/01/22 11:51:41;;;;;;;4.20;3.10;;;7.10;99.90;;;;;;5052906;28;20202;-45
2022/01/22 11:54:08;;;;;;;3.07;2.77;;;7.10;99.90;;;;;;5045591;28;20211;-44
2022/01/22 11:56:43;;;;;;;3.83;2.97;;;7.00;99.90;;;;;;5045805;28;20211;-42
2022/01/22 11:59:38;;;;;;;2.87;2.60;;;7.00;99.90;;;;;;5040104;28;20249;-43
2022/01/22 12:02:06;;;;;;;4.43;3.00;;;7.00;99.90;;;;;;5048694;28;20271;-46
2022/01/22 12:04:52;;;;;;;3.50;2.33;;;7.00;99.90;;;;;;5041350;28;20202;-42
2022/01/22 12:07:21;;;;;;;4.30;3.23;;;7.10;99.90;;;;;;5040652;28;20219;-43
2022/01/22 12:10:17;;;;;;;3.03;2.50;;;7.00;99.90;;;;;;5052245;28;20210;-44
2022/01/22 12:15:53;;;;;;;3.17;2.87;;;7.10;99.90;;;;;;5042798;28;20482;-44
2022/01/22 12:18:30;;;;;;;3.00;2.70;;;7.10;99.90;;;;;;5047523;28;20219;-44
2022/01/22 12:23:53;;;;;;;4.47;3.47;;;7.10;99.90;;;;;;5054031;28;20203;-46
2022/01/22 12:26:40;;;;;;;3.83;2.80;;;7.10;99.90;;;;;;5041023;28;20816;-44
2022/01/22 12:29:36;;;;;;;4.27;3.60;;;7.10;99.90;;;;;;5033720;28;20214;-45
2022/01/22 12:32:15;;;;;;;3.33;3.03;;;7.10;99.90;;;;;;5036699;28;20269;-45
2022/01/22 12:34:53;;;;;;;3.50;2.90;;;7.10;99.90;;;;;;5053822;28;20246;-43
2022/01/22 12:37:22;;;;;;;3.10;2.57;;;7.10;99.90;;;;;;5037513;28;20409;-48
2022/01/22 12:39:51;;;;;;;3.30;3.00;;;7.10;99.90;;;;;;5054175;28;20191;-43
2022/01/22 12:42:26;;;;;;;3.13;2.80;;;7.10;99.90;;;;;;5043187;28;20195;-44
2022/01/22 12:44:58;;;;;;;3.83;2.30;;;7.10;99.90;;;;;;5051127;28;20221;-45
2022/01/22 12:47:28;;;;;;;3.33;2.53;;;7.10;99.90;;;;;;5047761;28;20265;-45
2022/01/22 12:50:02;;;;;;;5.13;2.77;;;7.10;99.90;;;;;;5057735;28;20199;-46
2022/01/22 12:52:33;;;;;;;2.50;2.27;;;7.10;99.90;;;;;;5033872;28;20205;-46
2022/01/22 12:55:01;;;;;;;2.73;2.07;;;7.10;99.90;;;;;;5055573;28;20218;-46
2022/01/22 12:57:30;;;;;;;2.10;1.90;;;7.20;99.90;;;;;;5048299;28;20570;-47
2022/01/22 13:00:04;;;;;;;2.23;1.57;;;7.20;99.90;;;;;;5049363;28;20571;-48
2022/01/22 13:02:44;;;;;;;1.93;1.83;;;7.20;99.90;;;;;;5050777;28;20206;-48
2022/01/22 13:05:13;;;;;;;2.03;1.67;;;7.20;99.90;;;;;;5044575;28;20591;-50
2022/01/22 13:08:07;;;;;;;2.47;1.60;;;7.20;99.90;;;;;;5044052;28;20215;-51
2022/01/22 13:10:54;;;;;;;3.63;1.80;;;7.20;99.90;;;;;;5057519;28;20210;-50
2022/01/22 13:13:20;;;;;;;3.70;2.10;;;7.30;99.90;;;;;;5047746;28;20195;-52
2022/01/22 13:15:48;;;;;;;2.40;1.87;;;7.30;99.90;;;;;;5043972;28;20960;-54
2022/01/22 13:18:15;;;;;;;1.93;1.60;;;7.30;99.90;;;;;;5041787;28;20256;-48
2022/01/22 13:20:42;;;;;;;2.67;1.23;;;7.30;99.90;;;;;;5057441;28;20203;-48
2022/01/22 13:23:17;;;;;;;2.00;1.60;;;7.30;99.90;;;;;;5039068;28;20207;-49
2022/01/22 13:25:44;;;;;;;2.17;1.43;;;7.20;99.90;;;;;;5054408;28;20222;-50
2022/01/22 13:28:12;;;;;;;1.53;1.40;;;7.20;99.90;;;;;;5045442;28;20293;-50
2022/01/22 13:30:47;;;;;;;1.50;1.40;;;7.20;99.90;;;;;;5053751;28;20211;-46
2022/01/22 13:33:20;;;;;;;1.57;1.47;;;7.30;99.90;;;;;;5035046;28;20206;-51
2022/01/22 13:35:58;;;;;;;2.13;1.20;;;7.30;99.90;;;;;;5051480;28;20240;-49
2022/01/22 13:49:30;;;;;;;2.07;1.20;;;7.20;99.90;;;;;;5038188;28;20672;-49
2022/01/22 13:52:00;;;;;;;1.83;1.67;;;7.20;99.90;;;;;;5050060;28;20234;-43
2022/01/22 13:54:29;;;;;;;2.47;1.47;;;7.10;99.90;;;;;;5040811;28;20967;-46
2022/01/22 13:57:00;;;;;;;1.70;1.60;;;7.10;99.90;;;;;;5048905;28;20696;-45
2022/01/22 13:59:30;;;;;;;1.40;1.30;;;7.10;99.90;;;;;;5040395;28;20202;-46
2022/01/22 14:02:28;;;;;;;2.50;2.30;;;7.10;99.90;;;;;;5044342;28;20206;-45
2022/01/22 14:05:01;;;;;;;2.50;2.30;;;7.00;99.90;;;;;;5040529;28;20913;-46
2022/01/22 14:07:31;;;;;;;2.17;1.97;;;7.00;99.90;;;;;;5044851;28;20203;-49
2022/01/22 14:10:01;;;;;;;2.03;1.93;;;7.00;99.90;;;;;;5030764;28;20207;-46
2022/01/22 14:12:33;;;;;;;2.07;1.97;;;7.00;99.90;;;;;;5046003;28;20645;-45
2022/01/22 14:15:06;;;;;;;2.60;2.40;;;7.00;99.90;;;;;;5052940;28;20272;-47
2022/01/22 14:17:47;;;;;;;2.10;2.00;;;7.00;99.90;;;;;;5046569;28;20674;-48
2022/01/22 14:20:15;;;;;;;2.90;2.00;;;6.90;99.90;;;;;;5048315;28;20210;-49
2022/01/22 14:23:01;;;;;;;2.00;1.80;;;6.90;99.90;;;;;;5040820;28;20406;-47
2022/01/22 14:25:28;;;;;;;1.70;1.60;;;6.90;99.90;;;;;;5033661;28;20284;-48
2022/01/22 14:27:57;;;;;;;1.60;1.50;;;6.90;99.90;;;;;;5041919;28;20218;-48
2022/01/22 14:30:35;;;;;;;2.07;1.13;;;6.90;99.90;;;;;;5051621;28;20213;-51
2022/01/22 14:33:03;;;;;;;1.63;1.53;;;6.90;99.90;;;;;;5046406;28;20491;-44
2022/01/22 14:35:31;;;;;;;1.90;1.40;;;6.90;99.90;;;;;;5047109;28;20231;-46
2022/01/22 14:38:21;;;;;;;2.77;1.50;;;6.90;99.90;;;;;;5050218;28;20717;-44
2022/01/22 14:46:44;;;;;;;3.63;1.90;;;7.00;99.90;;;;;;5040543;28;20225;-48
2022/01/22 14:49:11;;;;;;;3.00;1.70;;;7.00;99.90;;;;;;5042404;28;20206;-46
2022/01/22 14:51:39;;;;;;;3.07;2.30;;;7.00;99.90;;;;;;5054783;28;20195;-49
2022/01/22 14:54:07;;;;;;;2.30;2.10;;;6.90;99.90;;;;;;5054140;28;20205;-45